SR5NLK-1 Weather Reports


Display with metric or nautical units.
time (UTC)temp
F
wind
direction
speed
MPH
gust
MPH
rain 1hr
in
rain 24hr
in
rain mn
in
humidity
%
barometer
mb
20221130104521 37 112 5.0 11.0 0.00 0.00 0.00 81 891.0
20221130104022 37 90 8.0 11.0 0.00 0.00 0.00 81 945.2
20221130103522 37 112 3.0 11.0 0.00 0.00 0.00 81 926.7
20221130103023 37 112 6.0 10.0 0.00 0.00 0.00 81 942.2
20221130102022 37 180 4.0 6.0 0.00 0.00 0.00 81 954.6
20221130101521 37 135 1.0 6.0 0.00 0.00 0.00 81 984.1
20221130101022 37 135 2.0 6.0 0.00 0.00 0.00 81 894.2
20221130100522 37 45 3.0 7.0 0.00 0.00 0.00 81 932.9
20221130100022 37 135 6.0 9.0 0.00 0.00 0.00 81 903.5
20221130095522 36 112 6.0 8.0 0.00 0.00 0.00 81 990.2
20221130094521 36 135 2.0 7.0 0.00 0.00 0.00 81 945.3
20221130094022 36 67 2.0 10.0 0.00 0.00 0.00 81 888.0
20221130093524 36 157 8.0 10.0 0.00 0.00 0.00 81 963.8
20221130093022 36 112 0.0 9.0 0.00 0.00 0.00 81 1015.0
20221130092522 36 135 5.0 9.0 0.00 0.00 0.00 81 987.2
20221130092022 36 112 9.0 12.0 0.00 0.00 0.00 81 977.9
20221130091521 36 90 5.0 12.0 0.00 0.00 0.00 81 906.6
20221130091023 36 67 4.0 9.0 0.00 0.00 0.00 81 971.7
20221130090523 36 90 4.0 8.0 0.00 0.00 0.00 82 922.1
20221130090022 36 90 3.0 10.0 0.00 0.00 0.00 81 894.2
20221130085522 36 112 3.0 8.0 0.00 0.00 0.00 82 968.4
20221130085023 36 90 6.0 9.0 0.00 0.00 0.00 81 948.5
20221130084521 36 112 2.0 8.0 0.00 0.00 0.00 81 915.7
20221130084022 36 112 8.0 8.0 0.00 0.00 0.00 81 897.3
20221130083023 36 112 7.0 11.0 0.00 0.00 0.00 81 933.4
20221130082522 36 67 6.0 8.0 0.00 0.00 0.00 81 900.4
20221130082023 36 112 3.0 12.0 0.00 0.00 0.00 81 945.2
20221130081522 36 112 5.0 6.0 0.00 0.00 0.00 81 954.6
20221130081023 36 112 7.0 9.0 0.00 0.00 0.00 81 884.9
20221130080523 36 90 2.0 11.0 0.00 0.00 0.00 81 900.4
20221130080023 36 247 25.0 25.0 0.00 0.00 0.00 81 928.2
20221130075023 36 112 4.0 7.0 0.00 0.00 0.00 81 987.2
20221130074522 36 67 2.0 7.0 0.00 0.00 0.00 82 948.8
20221130074023 36 112 4.0 6.0 0.00 0.00 0.00 82 948.5
20221130073523 36 90 1.0 6.0 0.00 0.00 0.00 82 939.2
20221130073023 36 135 3.0 5.0 0.00 0.00 0.00 82 974.6
20221130072023 35 90 2.0 6.0 0.00 0.00 0.00 82 993.5
20221130071522 36 67 4.0 7.0 0.00 0.00 0.00 82 925.1
20221130065523 35 90 1.0 10.0 0.00 0.00 0.00 81 925.1
20221130065023 35 112 2.0 6.0 0.00 0.00 0.00 82 903.9
20221130064522 35 90 4.0 6.0 0.00 0.00 0.00 82 915.9
20221130064023 35 90 3.0 6.0 0.00 0.00 0.00 82 903.5
20221130063523 35 112 5.0 7.0 0.00 0.00 0.00 82 1006.9
20221130062523 35 112 4.0 8.0 0.00 0.00 0.00 82 1010.4
20221130062023 35 90 5.0 7.0 0.00 0.00 0.00 81 906.6
20221130061522 35 90 4.0 6.0 0.00 0.00 0.00 81 900.4
20221130060523 35 135 6.0 9.0 0.00 0.00 0.00 81 974.8
20221130055523 35 112 2.0 4.0 0.00 0.00 0.00 81 952.1
20221130055023 35 67 3.0 6.0 0.00 0.00 0.00 81 931.4
20221130054522 35 90 4.0 6.0 0.00 0.00 0.00 81 909.7
20221130054023 35 112 3.0 9.0 0.00 0.00 0.00 81 929.8
20221130053023 36 45 2.0 5.0 0.00 0.00 0.00 81 906.6
20221130052523 36 67 2.0 6.0 0.00 0.00 0.00 81 915.8
20221130051522 35 67 2.0 4.0 0.00 0.00 0.00 81 993.4
20221130051023 35 112 0.0 7.0 0.00 0.00 0.00 81 914.5
20221130050023 35 67 3.0 10.0 0.00 0.00 0.00 81 915.9
20221130045523 35 112 9.0 11.0 0.00 0.00 0.00 81 942.1
20221130044618 35 90 4.0 7.0 0.00 0.00 0.00 81 948.5
20221130044522 35 90 4.0 7.0 0.00 0.00 0.00 81 948.5
20221130044023 35 112 6.0 6.0 0.00 0.00 0.00 81 993.2
20221130043023 35 90 2.0 10.0 0.00 0.00 0.00 81 919.0
20221130042523 35 112 6.0 10.0 0.00 0.00 0.00 81 942.2
20221130041522 35 135 5.0 6.0 0.00 0.00 0.00 81 906.5
20221130041023 36 112 4.0 8.0 0.00 0.00 0.00 81 903.5
20221130040023 36 112 6.0 7.0 0.00 0.00 0.00 81 906.5
20221130035523 35 135 5.0 5.0 0.00 0.00 0.00 81 954.4
20221130034522 35 112 4.0 4.0 0.00 0.00 0.00 81 968.6
20221130034023 35 67 2.0 7.0 0.00 0.00 0.00 81 894.2
20221130033023 36 112 6.0 10.0 0.00 0.00 0.00 81 1053.7
20221130031522 36 112 5.0 8.0 0.00 0.00 0.00 81 906.6
20221130031023 36 112 2.0 6.0 0.00 0.00 0.00 81 929.8
20221130030023 36 67 3.0 8.0 0.00 0.00 0.00 81 1019.7
20221130025523 36 135 0.0 5.0 0.00 0.00 0.00 81 984.1
20221130024554 36 45 1.0 6.0 0.00 0.00 0.00 81 979.9
20221130024522 36 45 1.0 6.0 0.00 0.00 0.00 81 979.9
20221130024023 36 112 3.0 6.0 0.00 0.00 0.00 81 993.3
20221130023023 35 112 1.0 5.0 0.00 0.00 0.00 81 915.9
20221130022523 35 112 5.0 7.0 0.00 0.00 0.00 81 936.8
20221130022023 35 135 4.0 11.0 0.00 0.00 0.00 81 902.1
20221130021522 35 67 3.0 9.0 0.00 0.00 0.00 81 932.4
20221130021023 35 112 6.0 9.0 0.00 0.00 0.00 81 911.0
20221130020523 36 90 9.0 11.0 0.00 0.00 0.00 81 957.6
20221130020023 36 112 8.0 8.0 0.00 0.00 0.00 81 1022.9
20221130015523 36 135 2.0 10.0 0.00 0.00 0.00 81 933.0
20221130015023 36 112 4.0 6.0 0.00 0.00 0.00 81 1060.2
20221130014522 36 112 2.0 5.0 0.00 0.00 0.00 81 897.2
20221130013523 35 112 1.0 6.0 0.00 0.00 0.00 81 973.2
20221130013023 35 135 3.0 8.0 0.00 0.00 0.00 81 948.4
20221130012023 35 157 2.0 9.0 0.00 0.00 0.00 81 909.7
20221130011522 35 135 9.0 10.0 0.00 0.00 0.00 81 942.3
20221130011023 35 45 3.0 11.0 0.00 0.00 0.00 81 915.9
20221130010523 35 90 6.0 8.0 0.00 0.00 0.00 81 911.5
20221130010100 35 135 3.0 11.0 0.00 0.00 0.00 81 897.2
20221130010023 35 135 3.0 11.0 0.00 0.00 0.00 81 897.2
20221130005523 35 112 8.0 10.0 0.00 0.00 0.00 81 898.5
20221130005023 35 135 2.0 14.0 0.00 0.00 0.00 81 974.7
20221130004522 35 90 5.0 10.0 0.00 0.00 0.00 81 954.7
20221130004023 35 112 9.0 9.0 0.00 0.00 0.00 81 881.7
20221130003523 35 112 5.0 8.0 0.00 0.00 0.00 81 936.1
20221130002523 35 135 3.0 6.0 0.00 0.00 0.00 81 945.4
20221130002023 35 112 3.0 7.0 0.00 0.00 0.00 81 977.8
20221130001522 35 90 3.0 7.0 0.00 0.00 0.00 81 958.9
20221130001023 35 112 6.0 6.0 0.00 0.00 0.00 81 912.7
20221130000523 35 112 4.0 6.0 0.00 0.00 0.00 81 1064.7
20221130000023 35 112 2.0 8.0 0.00 0.00 0.00 81 912.8
20221129235523 35 67 7.0 13.0 0.00 0.00 0.00 81 948.4
20221129235023 35 90 7.0 9.0 0.00 0.00 0.00 81 976.5
20221129234522 35 112 2.0 7.0 0.00 0.00 0.00 81 948.4
20221129234023 35 112 5.0 7.0 0.00 0.00 0.00 81 929.9
20221129233523 35 90 4.0 8.0 0.00 0.00 0.00 81 918.6
20221129233023 35 67 6.0 11.0 0.00 0.00 0.00 81 984.1
20221129232523 35 112 4.0 10.0 0.00 0.00 0.00 81 1017.5
20221129231522 35 112 8.0 13.0 0.00 0.00 0.00 81 959.1
20221129231023 35 90 2.0 10.0 0.00 0.00 0.00 81 971.5
20221129230523 35 180 3.0 8.0 0.00 0.00 0.00 81 936.0
20221129230024 35 157 1.0 8.0 0.00 0.00 0.00 81 942.4
20221129225523 35 112 2.0 8.0 0.00 0.00 0.00 81 973.2
20221129225024 35 157 5.0 11.0 0.00 0.00 0.00 81 906.6
20221129224523 35 135 5.0 8.0 0.00 0.00 0.00 81 993.4
20221129224024 35 67 3.0 11.0 0.00 0.00 0.00 81 957.7
20221129223524 35 67 6.0 8.0 0.00 0.00 0.00 81 1061.6
20221129223024 35 135 6.0 15.0 0.00 0.00 0.00 81 988.6
20221129222524 35 135 11.0 11.0 0.00 0.00 0.00 81 954.6
20221129222024 35 90 0.0 6.0 0.00 0.00 0.00 81 929.8
20221129221523 35 112 4.0 10.0 0.00 0.00 0.00 81 900.3
20221129221024 35 157 7.0 10.0 0.00 0.00 0.00 81 899.6
20221129220524 35 112 6.0 11.0 0.00 0.00 0.00 81 993.4
20221129220024 35 112 2.0 8.0 0.00 0.00 0.00 81 1011.5
20221129215524 36 67 8.0 8.0 0.00 0.00 0.00 81 909.7
20221129215024 36 0 1.0 12.0 0.00 0.00 0.00 81 997.9
20221129214523 36 112 4.0 12.0 0.00 0.00 0.00 81 977.9
20221129214024 36 90 7.0 9.0 0.00 0.00 0.00 81 971.7
20221129213524 36 112 6.0 7.0 0.00 0.00 0.00 81 942.2
20221129213024 36 112 2.0 7.0 0.00 0.00 0.00 81 996.5
20221129212524 36 112 4.0 8.0 0.00 0.00 0.00 81 925.1
20221129212024 36 67 4.0 10.0 0.00 0.00 0.00 81 912.8
20221129211523 36 112 3.0 11.0 0.00 0.00 0.00 81 970.7
20221129211024 36 112 4.0 7.0 0.00 0.00 0.00 82 897.3
20221129210024 36 90 3.0 6.0 0.00 0.00 0.00 82 906.5
20221129205024 36 112 5.0 8.0 0.00 0.00 0.00 82 909.7
20221129204523 36 112 8.0 8.0 0.00 0.00 0.00 82 1022.8
20221129204024 36 180 3.0 8.0 0.00 0.00 0.00 82 932.9
20221129203524 36 135 0.0 13.0 0.00 0.00 0.00 82 987.3
20221129203024 36 135 7.0 10.0 0.00 0.00 0.00 82 957.6
20221129202524 36 112 5.0 10.0 0.00 0.00 0.00 82 916.2
20221129202024 36 135 6.0 10.0 0.00 0.00 0.00 82 900.3
20221129201523 36 67 4.0 8.0 0.00 0.00 0.00 82 942.3
20221129201024 36 112 4.0 13.0 0.00 0.00 0.00 82 966.9
20221129200524 36 90 12.0 12.0 0.00 0.00 0.00 82 929.8
20221129200024 36 112 9.0 10.0 0.00 0.00 0.00 82 898.5
20221129195524 36 90 3.0 9.0 0.00 0.00 0.00 82 928.2
20221129195024 36 112 9.0 9.0 0.00 0.00 0.00 82 933.0
20221129194523 36 112 5.0 11.0 0.00 0.00 0.00 82 1010.4
20221129194024 36 112 6.0 6.0 0.00 0.00 0.00 82 966.9
20221129193524 36 112 6.0 7.0 0.00 0.00 0.00 82 1038.2
20221129193024 36 135 4.0 8.0 0.00 0.00 0.00 82 919.0
20221129192524 36 67 7.0 12.0 0.00 0.00 0.00 82 926.7
20221129192024 36 157 6.0 11.0 0.00 0.00 0.00 82 939.1
20221129191523 36 67 5.0 7.0 0.00 0.00 0.00 82 903.5
20221129191024 36 90 3.0 11.0 0.00 0.00 0.00 82 973.2
20221129190524 36 112 5.0 9.0 0.00 0.00 0.00 82 929.9
20221129185524 36 112 6.0 10.0 0.00 0.00 0.00 82 891.1
20221129185024 36 112 10.0 11.0 0.00 0.00 0.00 82 977.9
20221129184523 36 90 5.0 12.0 0.00 0.00 0.00 82 960.8
20221129184024 36 90 5.0 11.0 0.00 0.00 0.00 82 954.6
20221129183524 36 90 2.0 13.0 0.00 0.00 0.00 82 943.0
20221129183024 36 112 8.0 12.0 0.00 0.00 0.00 82 911.5
20221129182524 36 135 8.0 12.0 0.00 0.00 0.00 82 993.1
20221129182024 36 112 6.0 11.0 0.00 0.00 0.00 82 958.5
20221129181523 36 45 4.0 12.0 0.00 0.00 0.00 82 942.2
20221129181024 36 112 6.0 7.0 0.00 0.00 0.00 82 951.5
20221129180524 36 90 2.0 7.0 0.00 0.00 0.00 82 881.8
20221129175524 36 112 4.0 6.0 0.00 0.00 0.00 82 939.1
20221129174523 36 67 5.0 6.0 0.00 0.00 0.00 82 990.2
20221129174025 36 90 4.0 10.0 0.00 0.00 0.00 82 923.5
20221129173524 36 112 2.0 10.0 0.00 0.00 0.00 82 984.1
20221129173024 36 157 3.0 9.0 0.00 0.00 0.00 82 990.4
20221129172524 36 90 9.0 12.0 0.00 0.00 0.00 82 987.2
20221129172024 36 90 0.0 11.0 0.00 0.00 0.00 82 926.7
20221129171523 36 112 7.0 11.0 0.00 0.00 0.00 82 1022.8
20221129171024 36 112 7.0 14.0 0.00 0.00 0.00 82 942.3
20221129170525 36 90 8.0 10.0 0.00 0.00 0.00 82 1020.0
20221129170024 36 90 9.0 9.0 0.00 0.00 0.00 82 945.5
20221129165524 36 135 9.0 12.0 0.00 0.00 0.00 82 968.5
20221129165024 36 112 5.0 12.0 0.00 0.00 0.00 82 928.2
20221129164523 36 67 3.0 10.0 0.00 0.00 0.00 82 953.2
20221129164024 36 90 4.0 13.0 0.00 0.00 0.00 82 897.3
20221129163524 36 135 2.0 10.0 0.00 0.00 0.00 82 977.8
20221129163024 36 180 4.0 9.0 0.00 0.00 0.00 82 936.0
20221129162524 36 112 4.0 9.0 0.00 0.00 0.00 82 965.3
20221129162024 36 90 5.0 12.0 0.00 0.00 0.00 82 939.1
20221129161523 36 135 6.0 10.0 0.00 0.00 0.00 82 951.4
20221129161025 36 135 5.0 14.0 0.00 0.00 0.00 82 942.3
20221129160524 36 90 7.0 14.0 0.00 0.00 0.00 82 993.3
20221129160024 36 90 3.0 6.0 0.00 0.00 0.00 82 945.4
20221129155024 36 90 2.0 9.0 0.00 0.00 0.00 82 942.3
20221129154523 36 112 7.0 9.0 0.00 0.00 0.00 82 919.0
20221129154024 36 67 3.0 7.0 0.00 0.00 0.00 82 962.3
20221129153024 36 135 6.0 10.0 0.00 0.00 0.00 82 927.6
20221129152024 36 22 3.0 10.0 0.00 0.00 0.00 82 1016.6
20221129151523 36 45 2.0 10.0 0.00 0.00 0.00 82 942.2
20221129151024 36 112 5.0 13.0 0.00 0.00 0.00 82 897.3
20221129150525 36 90 4.0 11.0 0.00 0.00 0.00 82 1008.4
20221129150024 36 135 6.0 12.0 0.00 0.00 0.00 82 937.5
20221129145524 36 112 3.0 11.0 0.00 0.00 0.00 82 1013.5
20221129145024 36 112 3.0 8.0 0.00 0.00 0.00 82 887.9
20221129144523 36 45 3.0 8.0 0.00 0.00 0.00 82 912.7
20221129144024 36 90 4.0 6.0 0.00 0.00 0.00 82 932.9
20221129143024 36 112 2.0 9.0 0.00 0.00 0.00 81 928.1
20221129142524 36 90 6.0 11.0 0.00 0.00 0.00 81 963.8
20221129141523 36 67 1.0 10.0 0.00 0.00 0.00 81 925.1
20221129135524 36 112 7.0 13.0 0.00 0.00 0.00 81 939.1
20221129135024 36 90 4.0 13.0 0.00 0.00 0.00 81 951.5
20221129134524 37 157 9.0 14.0 0.00 0.00 0.00 81 1005.7
20221129134025 37 135 6.0 13.0 0.00 0.00 0.00 81 933.0
20221129132525 37 157 5.0 10.0 0.00 0.00 0.00 81 900.4
20221129132025 37 90 4.0 11.0 0.00 0.00 0.00 81 922.0
20221129131524 37 45 6.0 11.0 0.00 0.00 0.00 81 974.8
20221129131025 37 90 5.0 10.0 0.00 0.00 0.00 81 902.2
20221129130525 37 90 4.0 10.0 0.00 0.00 0.00 81 1035.2
20221129130025 37 112 7.0 12.0 0.00 0.00 0.00 81 939.2
20221129125525 37 112 7.0 11.0 0.00 0.00 0.00 81 978.0
20221129125025 37 90 5.0 16.0 0.00 0.00 0.00 81 951.6
20221129124524 37 135 12.0 14.0 0.00 0.00 0.00 81 927.6
20221129123525 37 67 4.0 10.0 0.00 0.00 0.00 81 936.0
20221129123025 37 112 6.0 10.0 0.00 0.00 0.00 81 915.6
20221129122525 38 180 3.0 8.0 0.00 0.00 0.00 81 928.5
20221129122025 38 112 8.0 8.0 0.00 0.00 0.00 82 977.9
20221129121524 37 112 5.0 9.0 0.00 0.00 0.00 82 912.8
20221129121025 37 135 5.0 10.0 0.00 0.00 0.00 82 985.5
20221129120525 37 90 6.0 11.0 0.00 0.00 0.00 82 933.0
20221129120025 37 112 11.0 11.0 0.00 0.00 0.00 82 898.2
20221129115525 37 67 4.0 10.0 0.00 0.00 0.00 82 978.3
20221129115025 37 90 6.0 10.0 0.00 0.00 0.00 82 960.8
20221129114524 37 90 7.0 8.0 0.00 0.00 0.00 82 936.0
20221129113025 37 135 3.0 11.0 0.00 0.00 0.00 82 954.7
20221129112525 37 112 6.0 11.0 0.00 0.00 0.00 82 891.1
20221129112025 37 90 6.0 10.0 0.00 0.00 0.00 82 906.6
20221129111524 37 112 5.0 10.0 0.00 0.00 0.00 82 945.4
20221129111025 37 67 10.0 10.0 0.00 0.00 0.00 82 919.0
20221129110525 37 67 7.0 11.0 0.00 0.00 0.00 82 934.4
20221129105525 37 45 3.0 8.0 0.00 0.00 0.00 82 956.2
20221129105025 37 135 8.0 11.0 0.00 0.00 0.00 82 954.7